Alice, Texas
Current Conditions -  °F | °C
As of 7:53 AM on Monday 24 Nov 2014 (Local Time) from KALI Reporting Station
Clear Clear  
Wind Chill: 54°   Ceiling: Unl
Heat Index: 54°   Visibility: 10mi
Dew Point: 40°   Wind: 12mph
Humidity: 59%   Direction: 360°N
Pressure: 30.03"   Gusts: NA
Location:  27.75°N, 98.06°W
Report Text: KALI 241353Z AUTO 36010KT 10SM CLR 12/04 A3003 RMK AO2 SLP167 T01220044
Loading
Personal Weather Stations






























Interactive Weather Map New forecast layout! Learn more

10-Day Weather Forecast

Advertisements
Track Severe Weather on mobile